Strona główna
METAR-TAF:

METAR-TAF

Lotnisko :

Nantucket, Massachusetts, Stany Zjednoczone

Szerokość geograficzna: 41-15-14N, Długość geograficzna: 070-03-35W, wysokość: 14 m

Aktualna obserwacja pogody

Raport powstał 23 minut temu, godzina 22:53 UTC
Wiatr 4 kt od zachód
Temperatura -3°C
Wilgotność 46%
Ciśnienie 1032 hPa
Widzialność: 16.1 km
bezchmurnie

METAR: KACK 192253Z 28004KT 10SM CLR M03/M13 A3047 RMK AO2 SLP317 T10281133

czas: 18:16 (23:16 UTC)

Prognoza

Raport powstał 2 godziny i 15 minut temu, godzina 21:01 UTC
Prognoza ważna od 19 godzina 21 UTC do 20 godzina 18 UTC
Wiatr 10 kt od północny zachód
Widzialność: 10 km
Rozproszone chmury na wysokości 20000 ft
Od 20 godzina 0800 UTC
Wiatr 6 kt od północno-północny zachód
Widzialność: 10 km
Rozproszone chmury na wysokości 20000 ft
Od 20 godzina 1600 UTC
Wiatr 6 kt od północ
Widzialność: 10 km
Przerywane chmury na wysokości 15000 ft

TAF: KACK 192101Z 1921/2018 31010KT P6SM SCT200 FM200800 34006KT P6SM SCT200 FM201600 35006KT P6SM BKN150

Obserwacja i prognoza pogody dla ponad 4000 lotnisk (raport METAR i TAF).

Dostępne stacje oznaczono żółtymi i czerwonymi punktami na mapie.

Najedź kursorem aby zobaczyć nazwę stacji.

Kliknij aby zobaczyć obserwacje i prognozy pogody.

Aby zmienić mapę: kliknij na zielony przycisk z czarnym krzyżykiem, aby powiększyć; na zielony przycisk z myślnikiem, aby pomniejszyć; na zielone strzałki, aby przejść do map sąsiednich.


METAR-TAF: